createdAt,value
2023-01-19T00:01:32.777Z,22.00
2023-01-19T00:04:00.430Z,22.50
2023-01-19T00:06:27.534Z,25.10
2023-01-19T00:08:55.924Z,23.10
2023-01-19T00:11:23.611Z,24.60
2023-01-19T00:13:51.451Z,23.90
2023-01-19T00:16:19.497Z,23.40
2023-01-19T00:18:47.487Z,22.80
2023-01-19T00:21:14.440Z,21.50
2023-01-19T00:23:46.852Z,21.40
2023-01-19T00:26:15.834Z,22.20
2023-01-19T00:28:43.901Z,21.00
2023-01-19T00:31:11.896Z,24.20
2023-01-19T00:33:38.941Z,19.90
2023-01-19T00:36:06.224Z,25.30
2023-01-19T00:38:35.781Z,24.00
2023-01-19T00:41:03.048Z,23.00
2023-01-19T00:43:30.553Z,21.70
2023-01-19T00:45:59.829Z,25.40
2023-01-19T00:48:27.310Z,26.30
2023-01-19T00:50:54.524Z,19.70
2023-01-19T00:53:24.047Z,24.80
2023-01-19T00:55:51.699Z,25.00
2023-01-19T00:58:18.965Z,22.70
2023-01-19T01:00:48.875Z,24.50
2023-01-19T01:03:17.906Z,21.90
2023-01-19T01:05:48.703Z,23.30
2023-01-19T01:08:18.978Z,23.80
2023-01-19T01:10:46.924Z,21.90
2023-01-19T01:13:21.170Z,25.80
2023-01-19T01:15:51.913Z,23.30
2023-01-19T01:18:20.038Z,24.30
2023-01-19T01:20:47.557Z,23.60
2023-01-19T01:23:14.880Z,22.30
2023-01-19T01:25:42.090Z,22.10
2023-01-19T01:28:10.095Z,25.00
2023-01-19T01:30:40.846Z,24.10
2023-01-19T01:33:09.044Z,24.10
2023-01-19T01:35:36.075Z,23.20
2023-01-19T01:38:05.256Z,22.90
2023-01-19T01:40:33.642Z,21.90
2023-01-19T01:43:02.473Z,24.70
2023-01-19T01:45:35.265Z,23.90
2023-01-19T01:48:09.385Z,22.80
2023-01-19T01:51:00.184Z,21.40
2023-01-19T01:53:27.687Z,21.90
2023-01-19T01:55:54.659Z,24.00
2023-01-19T01:58:22.636Z,20.60
2023-01-19T02:01:29.450Z,20.90
2023-01-19T02:03:57.259Z,25.10
2023-01-19T02:06:24.335Z,21.50
2023-01-19T02:09:19.405Z,21.70
2023-01-19T02:12:05.471Z,21.50
2023-01-19T02:14:36.839Z,23.70
2023-01-19T02:17:03.972Z,20.90
2023-01-19T02:19:35.279Z,18.70
2023-01-19T02:22:19.437Z,21.50
2023-01-19T02:24:46.549Z,20.90
2023-01-19T02:27:13.689Z,19.40
2023-01-19T02:29:40.838Z,23.00
2023-01-19T02:32:07.860Z,23.20
2023-01-19T02:34:35.015Z,24.70
2023-01-19T02:37:12.204Z,23.90
2023-01-19T02:39:52.802Z,20.20
2023-01-19T02:42:44.019Z,25.00
2023-01-19T02:45:14.009Z,21.50
2023-01-19T02:47:48.876Z,20.80
2023-01-19T02:50:35.431Z,21.50
2023-01-19T02:53:33.619Z,20.50
2023-01-19T02:56:27.040Z,19.60
2023-01-19T02:59:17.229Z,22.40
2023-01-19T03:02:11.649Z,23.90
2023-01-19T03:05:10.936Z,23.10
2023-01-19T03:07:57.363Z,21.50
2023-01-19T03:10:52.570Z,20.30
2023-01-19T03:13:29.537Z,21.80
2023-01-19T03:15:58.225Z,21.00
2023-01-19T03:18:26.884Z,22.40
2023-01-19T03:20:55.358Z,19.20
2023-01-19T03:23:24.330Z,20.60
2023-01-19T03:25:51.364Z,22.30
2023-01-19T03:28:19.912Z,22.30
2023-01-19T03:30:54.207Z,22.30
2023-01-19T03:33:32.437Z,24.40
2023-01-19T03:36:03.390Z,24.90
2023-01-19T03:38:33.859Z,22.00
2023-01-19T03:41:02.462Z,22.50
2023-01-19T03:43:32.072Z,23.70
2023-01-19T03:45:59.324Z,25.20
2023-01-19T03:48:26.449Z,22.10
2023-01-19T03:50:54.524Z,24.10
2023-01-19T03:53:22.334Z,22.40
2023-01-19T03:55:50.576Z,20.80
2023-01-19T03:58:17.595Z,21.30
2023-01-19T04:00:44.663Z,22.60
2023-01-19T04:03:16.004Z,20.40
2023-01-19T04:05:43.326Z,21.10
2023-01-19T04:08:11.497Z,21.60
2023-01-19T04:10:39.953Z,25.30
2023-01-19T04:13:07.615Z,22.40
2023-01-19T04:15:35.067Z,22.40
2023-01-19T04:18:02.527Z,20.60
2023-01-19T04:20:29.737Z,22.60
2023-01-19T04:23:00.513Z,19.80
2023-01-19T04:25:27.974Z,21.50
2023-01-19T04:27:57.519Z,21.30
2023-01-19T04:30:25.433Z,21.00
2023-01-19T04:32:53.328Z,18.70
2023-01-19T04:35:21.622Z,21.90
2023-01-19T04:37:49.542Z,19.80
2023-01-19T04:40:16.886Z,22.40
2023-01-19T04:42:44.905Z,20.00
2023-01-19T04:45:12.828Z,22.40
2023-01-19T04:47:39.892Z,21.50
2023-01-19T04:50:08.230Z,17.70
2023-01-19T04:52:39.559Z,20.70
2023-01-19T04:55:07.803Z,20.50
2023-01-19T04:57:37.117Z,19.10
2023-01-19T05:00:08.341Z,18.70
2023-01-19T05:02:35.481Z,22.30
2023-01-19T05:05:04.224Z,19.30
2023-01-19T05:07:32.242Z,20.00
2023-01-19T05:09:59.336Z,19.60
2023-01-19T05:12:26.449Z,21.40
2023-01-19T05:14:53.462Z,22.60
2023-01-19T05:17:21.038Z,21.80
2023-01-19T05:19:48.623Z,18.70
2023-01-19T05:22:15.789Z,19.90
2023-01-19T05:24:42.820Z,27.50
2023-01-19T05:27:10.039Z,24.20
2023-01-19T05:29:36.947Z,25.10
2023-01-19T05:32:04.794Z,29.10
2023-01-19T05:34:32.439Z,28.40
2023-01-19T05:36:59.401Z,28.10
2023-01-19T05:39:26.528Z,23.70
2023-01-19T05:41:53.982Z,25.10
2023-01-19T05:44:21.751Z,22.50
2023-01-19T05:46:49.033Z,23.50
2023-01-19T05:49:16.030Z,22.60
2023-01-19T05:51:44.975Z,23.30
2023-01-19T05:54:14.277Z,22.50
2023-01-19T05:56:42.413Z,23.40
2023-01-19T05:59:10.134Z,24.50
2023-01-19T06:01:39.704Z,22.20
2023-01-19T06:04:07.182Z,20.50
2023-01-19T06:06:34.477Z,24.50
2023-01-19T06:09:01.548Z,21.90
2023-01-19T06:11:30.451Z,21.00
2023-01-19T06:13:57.731Z,22.50
2023-01-19T06:16:24.944Z,19.70
2023-01-19T06:18:53.230Z,22.30
2023-01-19T06:21:20.323Z,21.60
2023-01-19T06:23:48.905Z,22.80
2023-01-19T06:26:15.933Z,19.50
2023-01-19T06:28:43.543Z,21.20
2023-01-19T06:31:34.144Z,25.50
2023-01-19T06:34:01.833Z,24.20
2023-01-19T06:36:29.181Z,22.90
2023-01-19T06:38:56.689Z,22.50
2023-01-19T06:41:29.601Z,21.10
2023-01-19T06:43:59.891Z,25.00
2023-01-19T06:46:27.119Z,27.20
2023-01-19T06:48:54.323Z,25.60
2023-01-19T06:51:23.455Z,32.00
2023-01-19T06:53:50.887Z,28.60
2023-01-19T06:56:17.965Z,24.30
2023-01-19T06:58:47.637Z,25.70
2023-01-19T07:01:15.113Z,28.40
2023-01-19T07:03:55.698Z,28.20
2023-01-19T07:06:24.925Z,28.10
2023-01-19T07:08:54.223Z,27.20
2023-01-19T07:11:32.655Z,30.90
2023-01-19T07:14:08.423Z,27.60
2023-01-19T07:16:36.625Z,34.00
2023-01-19T07:19:04.552Z,31.30
2023-01-19T07:21:36.801Z,28.00
2023-01-19T07:24:05.279Z,32.90
2023-01-19T07:26:33.031Z,33.20
2023-01-19T07:29:01.167Z,28.90
2023-01-19T07:31:28.692Z,42.10
2023-01-19T07:34:01.421Z,28.90
2023-01-19T07:36:30.849Z,24.80
2023-01-19T07:38:58.127Z,29.10
2023-01-19T07:41:26.057Z,23.50
2023-01-19T07:43:54.551Z,44.10
2023-01-19T07:46:24.351Z,28.40
2023-01-19T07:49:15.756Z,28.60
2023-01-19T07:51:43.246Z,31.80
2023-01-19T07:54:11.292Z,24.10
2023-01-19T07:56:40.092Z,28.20
2023-01-19T07:59:10.641Z,30.70
2023-01-19T08:01:44.503Z,25.10
2023-01-19T08:04:12.859Z,20.70
2023-01-19T08:06:39.979Z,19.00
2023-01-19T08:09:10.097Z,22.30
2023-01-19T08:11:37.556Z,21.10
2023-01-19T08:14:06.951Z,24.50
2023-01-19T08:16:36.269Z,25.30
2023-01-19T08:19:03.453Z,24.20
2023-01-19T08:21:32.895Z,18.90
2023-01-19T08:24:00.085Z,23.50
2023-01-19T08:26:31.914Z,21.80
2023-01-19T08:29:01.207Z,27.80
2023-01-19T08:31:28.465Z,28.00
2023-01-19T08:33:56.651Z,30.50
2023-01-19T08:36:24.702Z,24.90
2023-01-19T08:38:52.552Z,24.90
2023-01-19T08:41:21.930Z,23.30
2023-01-19T08:43:49.332Z,25.90
2023-01-19T08:46:21.418Z,24.00
2023-01-19T08:48:49.091Z,22.20
2023-01-19T08:51:16.987Z,24.40
2023-01-19T08:53:46.339Z,24.30
2023-01-19T08:56:14.048Z,23.00
2023-01-19T08:58:42.643Z,21.00
2023-01-19T09:01:16.442Z,17.60
2023-01-19T09:03:44.064Z,18.70
2023-01-19T09:06:12.705Z,17.90
2023-01-19T09:08:40.159Z,21.30
2023-01-19T09:11:10.944Z,21.40
2023-01-19T09:13:39.391Z,18.60
2023-01-19T09:16:09.053Z,17.60
2023-01-19T09:18:37.070Z,19.70
2023-01-19T09:21:04.908Z,23.20
2023-01-19T09:23:33.819Z,17.40
2023-01-19T09:26:02.582Z,18.30
2023-01-19T09:28:29.813Z,19.40
2023-01-19T09:30:58.403Z,18.90
2023-01-19T09:33:27.470Z,16.60
2023-01-19T09:35:58.695Z,17.20
2023-01-19T09:38:31.505Z,18.20
2023-01-19T09:41:01.011Z,18.40
2023-01-19T09:43:51.027Z,14.40
2023-01-19T09:46:28.768Z,17.30
2023-01-19T09:49:04.284Z,17.80
2023-01-19T09:51:37.989Z,15.90
2023-01-19T09:54:16.261Z,14.60
2023-01-19T09:56:44.720Z,16.80
2023-01-19T09:59:15.119Z,15.80
2023-01-19T10:01:52.138Z,17.80
2023-01-19T10:04:38.915Z,16.10
2023-01-19T10:07:16.785Z,20.10
2023-01-19T10:09:54.940Z,25.30
2023-01-19T10:12:40.819Z,16.70
2023-01-19T10:15:20.272Z,15.90
2023-01-19T10:18:18.957Z,18.00
2023-01-19T10:20:56.314Z,13.90
2023-01-19T10:23:36.171Z,16.80
2023-01-19T10:26:14.314Z,15.60
2023-01-19T10:28:41.811Z,16.20
2023-01-19T10:31:09.595Z,16.50
2023-01-19T10:33:38.040Z,18.30
2023-01-19T10:36:06.683Z,21.00
2023-01-19T10:38:34.098Z,16.80
2023-01-19T10:41:06.600Z,13.80
2023-01-19T10:43:48.812Z,16.40
2023-01-19T10:46:21.712Z,15.00
2023-01-19T10:48:50.636Z,10.80
2023-01-19T10:51:21.031Z,17.00
2023-01-19T10:53:59.971Z,10.80
2023-01-19T10:56:30.887Z,15.00
2023-01-19T10:58:59.626Z,12.60
2023-01-19T11:01:27.991Z,15.20
2023-01-19T11:03:59.547Z,15.00
2023-01-19T11:06:32.709Z,10.50
2023-01-19T11:09:20.164Z,12.30
2023-01-19T11:11:52.150Z,11.80
2023-01-19T11:14:21.998Z,12.70
2023-01-19T11:16:54.561Z,12.30
2023-01-19T11:19:31.757Z,13.30
2023-01-19T11:22:21.321Z,17.30
2023-01-19T11:24:49.073Z,11.80
2023-01-19T11:27:17.792Z,18.30
2023-01-19T11:30:18.146Z,23.80
2023-01-19T11:32:46.285Z,23.50
2023-01-19T11:35:33.467Z,25.50
2023-01-19T11:38:13.054Z,24.70
2023-01-19T11:40:40.460Z,17.70
2023-01-19T11:43:11.119Z,20.60
2023-01-19T11:45:38.501Z,15.30
2023-01-19T11:48:06.006Z,16.50
2023-01-19T11:50:41.085Z,21.30
2023-01-19T11:53:23.878Z,15.40
2023-01-19T11:56:06.644Z,17.50
2023-01-19T11:58:43.930Z,14.70
2023-01-19T12:01:29.784Z,14.40
2023-01-19T12:04:00.794Z,12.70
2023-01-19T12:06:31.632Z,13.60
2023-01-19T12:09:10.048Z,10.80
2023-01-19T12:11:48.685Z,14.10
2023-01-19T12:14:31.529Z,12.40
2023-01-19T12:17:02.098Z,11.70
2023-01-19T12:19:50.146Z,14.10
2023-01-19T12:22:17.205Z,11.00
2023-01-19T12:24:49.355Z,15.90
2023-01-19T12:27:38.905Z,13.60
2023-01-19T12:30:26.640Z,14.20
2023-01-19T12:33:35.383Z,12.90
2023-01-19T12:36:09.404Z,13.90
2023-01-19T12:38:40.121Z,24.30
2023-01-19T12:41:17.346Z,21.70
2023-01-19T12:43:44.493Z,17.90
2023-01-19T12:46:20.684Z,17.60
2023-01-19T12:48:47.973Z,15.50
2023-01-19T12:51:27.690Z,15.30
2023-01-19T12:53:56.178Z,15.20
2023-01-19T12:56:34.402Z,13.20
2023-01-19T12:59:01.559Z,12.20
2023-01-19T13:01:28.963Z,12.10
2023-01-19T13:04:06.872Z,14.10
2023-01-19T13:07:05.540Z,11.20
2023-01-19T13:09:39.551Z,16.80
2023-01-19T13:12:19.998Z,13.90
2023-01-19T13:14:47.480Z,13.80
2023-01-19T13:17:31.218Z,15.80
2023-01-19T13:20:05.499Z,16.80
2023-01-19T13:23:14.661Z,14.20
2023-01-19T13:25:47.848Z,14.90
2023-01-19T13:28:16.901Z,13.30
2023-01-19T13:30:54.605Z,12.80
2023-01-19T13:33:23.905Z,18.30
2023-01-19T13:35:58.240Z,19.20
2023-01-19T13:38:26.651Z,15.10
2023-01-19T13:40:54.516Z,21.90
2023-01-19T13:43:28.121Z,23.20
2023-01-19T13:45:55.864Z,18.10
2023-01-19T13:48:23.688Z,20.10
2023-01-19T13:51:05.246Z,18.80
2023-01-19T13:53:33.031Z,16.20
2023-01-19T13:56:12.786Z,14.60
2023-01-19T13:58:39.923Z,14.40
2023-01-19T14:01:21.815Z,16.00
2023-01-19T14:03:51.897Z,18.40
2023-01-19T14:18:31.093Z,18.60
2023-01-19T14:21:05.571Z,13.80
2023-01-19T14:23:36.673Z,18.00
2023-01-19T14:26:03.916Z,19.70
2023-01-19T14:28:35.882Z,17.90
2023-01-19T14:31:17.929Z,14.60
2023-01-19T14:33:46.515Z,18.10
2023-01-19T14:36:14.126Z,14.70
2023-01-19T14:38:45.358Z,15.70
2023-01-19T14:41:13.278Z,16.90
2023-01-19T14:43:43.919Z,15.90
2023-01-19T14:46:18.488Z,18.50
2023-01-19T14:48:47.440Z,16.90
2023-01-19T14:51:22.585Z,14.90
2023-01-19T14:53:54.339Z,16.80
2023-01-19T14:56:31.392Z,17.40
2023-01-19T14:58:59.590Z,17.40
2023-01-19T15:01:31.556Z,16.10
2023-01-19T15:03:58.736Z,17.90
2023-01-19T15:06:26.041Z,14.50
2023-01-19T15:08:53.378Z,20.50
2023-01-19T15:11:31.130Z,16.10
2023-01-19T15:13:58.725Z,14.60
2023-01-19T15:16:26.136Z,16.70
2023-01-19T15:18:53.252Z,20.50
2023-01-19T15:21:23.106Z,15.10
2023-01-19T15:23:50.155Z,17.80
2023-01-19T15:26:18.865Z,17.00
2023-01-19T15:28:46.488Z,16.00
2023-01-19T15:31:15.276Z,18.00
2023-01-19T15:33:42.571Z,21.20
2023-01-19T15:36:18.328Z,20.30
2023-01-19T15:38:46.895Z,18.60
2023-01-19T15:41:14.840Z,19.80
2023-01-19T15:43:41.913Z,20.00
2023-01-19T15:46:09.009Z,15.20
2023-01-19T15:48:35.974Z,17.00
2023-01-19T15:51:03.174Z,20.00
2023-01-19T15:53:30.253Z,18.50
2023-01-19T15:55:57.329Z,21.70
2023-01-19T15:58:24.930Z,18.50
2023-01-19T16:00:56.550Z,21.60
2023-01-19T16:03:24.674Z,18.60
2023-01-19T16:05:51.690Z,18.70
2023-01-19T16:08:18.727Z,19.10
2023-01-19T16:10:45.750Z,20.70
2023-01-19T16:13:12.758Z,17.60
2023-01-19T16:15:41.994Z,16.20
2023-01-19T16:18:08.960Z,19.10
2023-01-19T16:20:35.989Z,18.80
2023-01-19T16:23:14.747Z,16.00
2023-01-19T16:25:42.809Z,19.30
2023-01-19T16:28:10.060Z,20.00
2023-01-19T16:30:37.349Z,20.30
2023-01-19T16:33:05.186Z,20.20
2023-01-19T16:35:32.332Z,18.00
2023-01-19T16:37:59.581Z,17.90
2023-01-19T16:40:26.734Z,32.40
2023-01-19T16:42:53.983Z,21.40
2023-01-19T16:45:21.133Z,20.10
2023-01-19T16:47:51.665Z,16.10
2023-01-19T18:19:50.114Z,20.20
2023-01-19T18:22:17.615Z,22.90
2023-01-19T18:24:46.118Z,21.10
2023-01-19T18:27:13.359Z,22.60
2023-01-19T18:29:40.679Z,19.80
2023-01-19T18:32:07.900Z,21.80
2023-01-19T18:34:35.556Z,21.90
2023-01-19T18:37:02.823Z,22.50
2023-01-19T18:39:31.394Z,22.10
2023-01-19T18:42:00.556Z,24.40
2023-01-19T18:44:27.861Z,22.70
2023-01-19T18:46:57.115Z,24.40
2023-01-19T18:49:24.336Z,19.00
2023-01-19T18:51:51.515Z,21.30
2023-01-19T18:54:18.771Z,22.30
2023-01-19T18:56:48.938Z,22.80
2023-01-19T18:59:16.215Z,23.70
2023-01-19T19:01:43.526Z,24.40
2023-01-19T19:04:10.849Z,21.80
2023-01-19T19:06:38.047Z,21.90
2023-01-19T19:09:05.686Z,21.70
2023-01-19T19:11:32.995Z,25.30
2023-01-19T19:14:01.455Z,20.40
2023-01-19T19:16:29.933Z,20.00
2023-01-19T19:18:57.283Z,20.40
2023-01-19T19:21:25.740Z,19.10
2023-01-19T19:23:54.613Z,20.20
2023-01-19T19:26:22.167Z,20.20
2023-01-19T19:28:49.391Z,19.70
2023-01-19T19:31:20.846Z,20.10
2023-01-19T19:33:48.977Z,19.60
2023-01-19T19:36:16.360Z,21.90
2023-01-19T19:38:46.723Z,21.80
2023-01-19T19:41:16.289Z,22.10
2023-01-19T19:43:43.589Z,19.40
2023-01-19T19:46:12.474Z,21.60
2023-01-19T19:48:39.809Z,21.20
2023-01-19T19:51:27.357Z,19.40
2023-01-19T19:53:56.050Z,20.50
2023-01-19T19:56:23.886Z,21.40
2023-01-19T19:58:51.813Z,20.10
2023-01-19T20:01:26.946Z,21.50
2023-01-19T20:03:55.160Z,23.90
2023-01-19T20:06:23.805Z,23.50
2023-01-19T20:08:55.182Z,23.60
2023-01-19T20:11:24.297Z,23.80
2023-01-19T20:13:51.519Z,24.40
2023-01-19T20:16:20.219Z,25.70
2023-01-19T20:18:51.084Z,25.00
2023-01-19T20:21:20.489Z,22.50
2023-01-19T20:23:48.317Z,22.80
2023-01-19T20:26:16.548Z,23.60
2023-01-19T20:28:43.738Z,22.40
2023-01-19T20:31:19.520Z,23.50
2023-01-19T20:33:49.032Z,23.70
2023-01-19T20:36:16.377Z,25.30
2023-01-19T20:38:43.741Z,23.90
2023-01-19T20:41:11.731Z,21.50
2023-01-19T20:43:38.943Z,19.60
2023-01-19T20:46:06.261Z,22.20
2023-01-19T20:48:33.531Z,24.90
2023-01-19T20:51:08.749Z,21.10
2023-01-19T20:53:36.322Z,27.20
2023-01-19T20:56:06.197Z,22.80
2023-01-19T20:58:33.793Z,25.50
2023-01-19T21:01:01.299Z,24.80
2023-01-19T21:03:29.771Z,22.20
2023-01-19T21:05:59.478Z,21.20
2023-01-19T21:08:26.856Z,24.20
2023-01-19T21:10:57.735Z,20.80
2023-01-19T21:13:24.971Z,24.70
2023-01-19T21:15:52.224Z,21.80
2023-01-19T21:18:19.443Z,25.40
2023-01-19T21:20:49.658Z,21.80
2023-01-19T21:23:17.944Z,24.70
2023-01-19T21:25:55.678Z,26.70
2023-01-19T21:28:23.204Z,21.10
2023-01-19T21:30:51.242Z,22.40
2023-01-19T21:33:18.662Z,26.20
2023-01-19T21:35:52.863Z,23.90
2023-01-19T21:38:20.261Z,24.70
2023-01-19T21:40:47.463Z,25.80
2023-01-19T21:43:14.814Z,24.70
2023-01-19T21:45:43.084Z,24.60
2023-01-19T21:48:10.384Z,22.80
2023-01-19T21:50:37.555Z,28.30
2023-01-19T21:53:07.993Z,25.00
2023-01-19T21:55:35.647Z,25.90
2023-01-19T21:58:03.127Z,22.50
2023-01-19T22:00:33.125Z,21.60
2023-01-19T22:03:05.297Z,24.50
2023-01-19T22:05:36.911Z,23.80
2023-01-19T22:08:06.431Z,25.40
2023-01-19T22:10:39.810Z,22.50
2023-01-19T22:13:07.920Z,23.90
2023-01-19T22:15:35.161Z,25.40
2023-01-19T22:18:02.517Z,25.70
2023-01-19T22:20:29.729Z,22.90
2023-01-19T22:22:57.235Z,24.70
2023-01-19T22:25:28.084Z,24.70
2023-01-19T22:27:56.611Z,25.70
2023-01-19T22:30:23.891Z,26.40
2023-01-19T22:32:51.222Z,23.90
2023-01-19T22:35:18.491Z,25.20
2023-01-19T22:37:45.952Z,23.00
2023-01-19T22:40:13.444Z,22.70
2023-01-19T22:42:40.772Z,27.70
2023-01-19T22:45:08.910Z,25.60
2023-01-19T22:47:36.420Z,23.60
2023-01-19T22:50:03.718Z,27.10
2023-01-19T22:52:30.905Z,23.10
2023-01-19T22:54:58.572Z,26.70
2023-01-19T22:57:25.760Z,27.30
2023-01-19T22:59:52.944Z,24.20
2023-01-19T23:02:21.078Z,23.50
2023-01-19T23:04:48.654Z,26.90
2023-01-19T23:07:15.869Z,24.70
2023-01-19T23:09:43.089Z,24.80
2023-01-19T23:12:10.267Z,22.70
2023-01-19T23:14:37.922Z,27.50
2023-01-19T23:17:05.105Z,29.10
2023-01-19T23:19:32.418Z,25.00
2023-01-19T23:21:59.585Z,26.10
2023-01-19T23:24:26.864Z,24.90
2023-01-19T23:26:54.098Z,22.90
2023-01-19T23:29:21.430Z,24.80
2023-01-19T23:31:49.141Z,24.70
2023-01-19T23:34:16.456Z,23.80
2023-01-19T23:36:43.805Z,25.10
2023-01-19T23:39:19.120Z,25.10
2023-01-19T23:41:46.511Z,23.90
2023-01-19T23:44:13.783Z,25.10
2023-01-19T23:46:41.768Z,23.00
2023-01-19T23:49:08.981Z,24.80
2023-01-19T23:51:36.250Z,24.60
2023-01-19T23:54:03.477Z,27.70
2023-01-19T23:56:33.071Z,21.90
2023-01-19T23:59:11.281Z,24.20
